sensor_id;sensor_type;location;lat;lon;timestamp;temperature;humidity
48551;DHT22;34397;51.176;6.738;2023-03-24T00:00:27;11.80;78.40
48551;DHT22;34397;51.176;6.738;2023-03-24T00:03:00;11.70;78.40
48551;DHT22;34397;51.176;6.738;2023-03-24T00:05:32;11.70;78.90
48551;DHT22;34397;51.176;6.738;2023-03-24T00:08:04;11.70;79.50
48551;DHT22;34397;51.176;6.738;2023-03-24T00:10:36;11.70;79.50
48551;DHT22;34397;51.176;6.738;2023-03-24T00:13:09;11.70;79.40
48551;DHT22;34397;51.176;6.738;2023-03-24T00:15:41;11.70;79.50
48551;DHT22;34397;51.176;6.738;2023-03-24T00:18:16;11.70;79.40
48551;DHT22;34397;51.176;6.738;2023-03-24T00:20:52;11.70;79.50
48551;DHT22;34397;51.176;6.738;2023-03-24T00:23:29;11.70;79.10
48551;DHT22;34397;51.176;6.738;2023-03-24T00:26:04;11.80;79.00
48551;DHT22;34397;51.176;6.738;2023-03-24T00:28:38;11.70;79.10
48551;DHT22;34397;51.176;6.738;2023-03-24T00:31:10;11.70;79.30
48551;DHT22;34397;51.176;6.738;2023-03-24T00:33:47;11.80;79.40
48551;DHT22;34397;51.176;6.738;2023-03-24T00:36:21;11.80;79.50
48551;DHT22;34397;51.176;6.738;2023-03-24T00:38:55;11.80;79.00
48551;DHT22;34397;51.176;6.738;2023-03-24T00:41:27;11.80;78.40
48551;DHT22;34397;51.176;6.738;2023-03-24T00:44:00;11.80;78.30
48551;DHT22;34397;51.176;6.738;2023-03-24T00:46:35;11.90;78.40
48551;DHT22;34397;51.176;6.738;2023-03-24T00:49:10;11.90;78.20
48551;DHT22;34397;51.176;6.738;2023-03-24T00:51:44;11.90;78.50
48551;DHT22;34397;51.176;6.738;2023-03-24T00:54:16;11.90;78.60
48551;DHT22;34397;51.176;6.738;2023-03-24T00:56:51;11.80;78.60
48551;DHT22;34397;51.176;6.738;2023-03-24T00:59:25;11.90;78.60
48551;DHT22;34397;51.176;6.738;2023-03-24T01:01:59;11.90;78.70
48551;DHT22;34397;51.176;6.738;2023-03-24T01:04:32;11.90;78.70
48551;DHT22;34397;51.176;6.738;2023-03-24T01:07:07;11.90;79.20
48551;DHT22;34397;51.176;6.738;2023-03-24T01:09:40;11.90;79.40
48551;DHT22;34397;51.176;6.738;2023-03-24T01:12:12;11.90;79.20
48551;DHT22;34397;51.176;6.738;2023-03-24T01:14:44;11.90;80.00
48551;DHT22;34397;51.176;6.738;2023-03-24T01:17:17;11.90;79.60
48551;DHT22;34397;51.176;6.738;2023-03-24T01:19:53;11.90;79.60
48551;DHT22;34397;51.176;6.738;2023-03-24T01:22:27;11.90;79.60
48551;DHT22;34397;51.176;6.738;2023-03-24T01:25:00;11.90;79.80
48551;DHT22;34397;51.176;6.738;2023-03-24T01:27:32;11.90;79.20
48551;DHT22;34397;51.176;6.738;2023-03-24T01:30:05;11.90;78.90
48551;DHT22;34397;51.176;6.738;2023-03-24T01:32:38;11.90;78.60
48551;DHT22;34397;51.176;6.738;2023-03-24T01:35:12;11.90;78.40
48551;DHT22;34397;51.176;6.738;2023-03-24T01:37:44;11.90;78.80
48551;DHT22;34397;51.176;6.738;2023-03-24T01:40:19;11.90;78.70
48551;DHT22;34397;51.176;6.738;2023-03-24T01:42:53;11.90;78.70
48551;DHT22;34397;51.176;6.738;2023-03-24T01:45:53;11.90;78.50
48551;DHT22;34397;51.176;6.738;2023-03-24T01:48:32;11.90;79.30
48551;DHT22;34397;51.176;6.738;2023-03-24T01:51:11;11.90;78.60
48551;DHT22;34397;51.176;6.738;2023-03-24T01:53:48;11.90;78.90
48551;DHT22;34397;51.176;6.738;2023-03-24T01:56:24;11.90;78.80
48551;DHT22;34397;51.176;6.738;2023-03-24T01:58:59;11.90;79.00
48551;DHT22;34397;51.176;6.738;2023-03-24T02:01:32;11.90;79.20
48551;DHT22;34397;51.176;6.738;2023-03-24T02:04:05;11.90;79.00
48551;DHT22;34397;51.176;6.738;2023-03-24T02:06:42;11.90;78.60
48551;DHT22;34397;51.176;6.738;2023-03-24T02:09:14;11.90;79.30
48551;DHT22;34397;51.176;6.738;2023-03-24T02:11:46;12.00;79.00
48551;DHT22;34397;51.176;6.738;2023-03-24T02:14:18;12.00;78.70
48551;DHT22;34397;51.176;6.738;2023-03-24T02:17:01;11.90;78.80
48551;DHT22;34397;51.176;6.738;2023-03-24T02:20:10;12.00;80.00
48551;DHT22;34397;51.176;6.738;2023-03-24T02:23:28;12.00;80.20
48551;DHT22;34397;51.176;6.738;2023-03-24T02:26:51;12.00;79.80
48551;DHT22;34397;51.176;6.738;2023-03-24T02:29:51;12.00;79.50
48551;DHT22;34397;51.176;6.738;2023-03-24T02:36:31;12.00;80.00
48551;DHT22;34397;51.176;6.738;2023-03-24T02:42:59;12.00;80.80
48551;DHT22;34397;51.176;6.738;2023-03-24T02:45:36;12.00;80.70
48551;DHT22;34397;51.176;6.738;2023-03-24T02:48:25;12.00;80.70
48551;DHT22;34397;51.176;6.738;2023-03-24T02:51:06;12.00;80.90
48551;DHT22;34397;51.176;6.738;2023-03-24T02:53:49;12.00;80.20
48551;DHT22;34397;51.176;6.738;2023-03-24T02:56:31;12.10;80.20
48551;DHT22;34397;51.176;6.738;2023-03-24T02:59:07;12.10;80.40
48551;DHT22;34397;51.176;6.738;2023-03-24T03:01:43;12.10;80.00
48551;DHT22;34397;51.176;6.738;2023-03-24T03:04:25;12.10;79.80
48551;DHT22;34397;51.176;6.738;2023-03-24T03:07:04;12.10;79.70
48551;DHT22;34397;51.176;6.738;2023-03-24T03:09:41;12.20;80.70
48551;DHT22;34397;51.176;6.738;2023-03-24T03:12:17;12.20;79.80
48551;DHT22;34397;51.176;6.738;2023-03-24T03:14:53;12.20;79.20
48551;DHT22;34397;51.176;6.738;2023-03-24T03:17:29;12.30;79.30
48551;DHT22;34397;51.176;6.738;2023-03-24T03:20:07;12.30;78.60
48551;DHT22;34397;51.176;6.738;2023-03-24T03:22:45;12.40;78.30
48551;DHT22;34397;51.176;6.738;2023-03-24T03:25:22;12.40;78.20
48551;DHT22;34397;51.176;6.738;2023-03-24T03:27:59;12.50;78.00
48551;DHT22;34397;51.176;6.738;2023-03-24T03:30:36;12.50;78.00
48551;DHT22;34397;51.176;6.738;2023-03-24T03:33:14;12.60;77.40
48551;DHT22;34397;51.176;6.738;2023-03-24T03:35:59;12.60;77.40
48551;DHT22;34397;51.176;6.738;2023-03-24T03:38:42;12.60;77.10
48551;DHT22;34397;51.176;6.738;2023-03-24T03:41:17;12.70;77.30
48551;DHT22;34397;51.176;6.738;2023-03-24T03:43:51;12.80;76.70
48551;DHT22;34397;51.176;6.738;2023-03-24T03:46:23;12.80;76.60
48551;DHT22;34397;51.176;6.738;2023-03-24T03:48:56;12.80;76.30
48551;DHT22;34397;51.176;6.738;2023-03-24T03:51:28;12.80;76.20
48551;DHT22;34397;51.176;6.738;2023-03-24T03:54:02;12.80;76.20
48551;DHT22;34397;51.176;6.738;2023-03-24T03:56:37;12.90;76.00
48551;DHT22;34397;51.176;6.738;2023-03-24T03:59:22;12.90;76.90
48551;DHT22;34397;51.176;6.738;2023-03-24T04:01:56;12.90;77.80
48551;DHT22;34397;51.176;6.738;2023-03-24T04:04:50;12.90;77.20
48551;DHT22;34397;51.176;6.738;2023-03-24T04:07:41;12.80;76.70
48551;DHT22;34397;51.176;6.738;2023-03-24T04:10:21;12.80;76.40
48551;DHT22;34397;51.176;6.738;2023-03-24T04:13:10;12.80;76.40
48551;DHT22;34397;51.176;6.738;2023-03-24T04:15:53;12.80;76.50
48551;DHT22;34397;51.176;6.738;2023-03-24T04:18:43;12.80;76.80
48551;DHT22;34397;51.176;6.738;2023-03-24T04:21:30;12.80;78.40
48551;DHT22;34397;51.176;6.738;2023-03-24T04:24:21;12.80;80.00
48551;DHT22;34397;51.176;6.738;2023-03-24T04:27:12;12.60;81.40
48551;DHT22;34397;51.176;6.738;2023-03-24T04:29:57;12.50;82.20
48551;DHT22;34397;51.176;6.738;2023-03-24T04:32:40;12.40;82.50
48551;DHT22;34397;51.176;6.738;2023-03-24T04:35:20;12.30;82.90
48551;DHT22;34397;51.176;6.738;2023-03-24T04:38:03;12.20;82.70
48551;DHT22;34397;51.176;6.738;2023-03-24T04:40:39;12.10;83.20
48551;DHT22;34397;51.176;6.738;2023-03-24T04:43:14;12.00;83.10
48551;DHT22;34397;51.176;6.738;2023-03-24T04:45:48;11.90;82.70
48551;DHT22;34397;51.176;6.738;2023-03-24T04:48:23;11.80;82.70
48551;DHT22;34397;51.176;6.738;2023-03-24T04:50:57;11.70;83.10
48551;DHT22;34397;51.176;6.738;2023-03-24T04:53:30;11.60;82.80
48551;DHT22;34397;51.176;6.738;2023-03-24T04:56:11;11.50;83.20
48551;DHT22;34397;51.176;6.738;2023-03-24T04:58:56;11.50;83.50
48551;DHT22;34397;51.176;6.738;2023-03-24T05:01:28;11.50;83.70
48551;DHT22;34397;51.176;6.738;2023-03-24T05:04:02;11.60;83.60
48551;DHT22;34397;51.176;6.738;2023-03-24T05:06:35;11.60;83.70
48551;DHT22;34397;51.176;6.738;2023-03-24T05:09:07;11.50;83.60
48551;DHT22;34397;51.176;6.738;2023-03-24T05:11:39;11.50;83.90
48551;DHT22;34397;51.176;6.738;2023-03-24T05:14:11;11.50;83.10
48551;DHT22;34397;51.176;6.738;2023-03-24T05:16:43;11.50;82.90
48551;DHT22;34397;51.176;6.738;2023-03-24T05:19:16;11.40;83.00
48551;DHT22;34397;51.176;6.738;2023-03-24T05:21:48;11.40;82.50
48551;DHT22;34397;51.176;6.738;2023-03-24T05:24:20;11.40;80.00
48551;DHT22;34397;51.176;6.738;2023-03-24T05:26:51;11.30;79.50
48551;DHT22;34397;51.176;6.738;2023-03-24T05:29:23;11.30;78.70
48551;DHT22;34397;51.176;6.738;2023-03-24T05:31:55;11.10;76.90
48551;DHT22;34397;51.176;6.738;2023-03-24T05:34:28;11.10;77.20
48551;DHT22;34397;51.176;6.738;2023-03-24T05:37:00;11.10;76.70
48551;DHT22;34397;51.176;6.738;2023-03-24T05:39:32;11.00;77.10
48551;DHT22;34397;51.176;6.738;2023-03-24T05:42:04;10.90;77.20
48551;DHT22;34397;51.176;6.738;2023-03-24T05:44:36;10.90;76.20
48551;DHT22;34397;51.176;6.738;2023-03-24T05:47:08;10.90;74.50
48551;DHT22;34397;51.176;6.738;2023-03-24T05:49:43;10.80;73.10
48551;DHT22;34397;51.176;6.738;2023-03-24T05:52:15;10.60;71.40
48551;DHT22;34397;51.176;6.738;2023-03-24T05:54:50;10.50;70.60
48551;DHT22;34397;51.176;6.738;2023-03-24T05:57:22;10.50;71.70
48551;DHT22;34397;51.176;6.738;2023-03-24T05:59:54;10.40;71.20
48551;DHT22;34397;51.176;6.738;2023-03-24T06:02:26;10.30;71.40
48551;DHT22;34397;51.176;6.738;2023-03-24T06:04:59;10.30;71.80
48551;DHT22;34397;51.176;6.738;2023-03-24T06:07:32;10.20;72.70
48551;DHT22;34397;51.176;6.738;2023-03-24T06:10:04;10.10;72.30
48551;DHT22;34397;51.176;6.738;2023-03-24T06:12:37;10.10;72.70
48551;DHT22;34397;51.176;6.738;2023-03-24T06:15:10;10.00;73.00
48551;DHT22;34397;51.176;6.738;2023-03-24T06:17:46;10.00;73.10
48551;DHT22;34397;51.176;6.738;2023-03-24T06:20:21;10.00;72.90
48551;DHT22;34397;51.176;6.738;2023-03-24T06:22:53;10.00;73.60
48551;DHT22;34397;51.176;6.738;2023-03-24T06:25:28;10.00;74.10
48551;DHT22;34397;51.176;6.738;2023-03-24T06:28:00;10.00;73.50
48551;DHT22;34397;51.176;6.738;2023-03-24T06:30:33;10.00;73.10
48551;DHT22;34397;51.176;6.738;2023-03-24T06:33:06;10.10;73.00
48551;DHT22;34397;51.176;6.738;2023-03-24T06:35:40;10.10;73.50
48551;DHT22;34397;51.176;6.738;2023-03-24T06:38:12;10.10;73.10
48551;DHT22;34397;51.176;6.738;2023-03-24T06:40:44;10.10;73.00
48551;DHT22;34397;51.176;6.738;2023-03-24T06:43:16;10.10;73.90
48551;DHT22;34397;51.176;6.738;2023-03-24T06:45:48;10.10;73.80
48551;DHT22;34397;51.176;6.738;2023-03-24T06:48:20;10.10;74.20
48551;DHT22;34397;51.176;6.738;2023-03-24T06:50:54;10.10;73.60
48551;DHT22;34397;51.176;6.738;2023-03-24T06:53:26;10.10;73.50
48551;DHT22;34397;51.176;6.738;2023-03-24T06:55:58;10.20;73.60
48551;DHT22;34397;51.176;6.738;2023-03-24T06:58:30;10.20;73.80
48551;DHT22;34397;51.176;6.738;2023-03-24T07:01:02;10.20;73.90
48551;DHT22;34397;51.176;6.738;2023-03-24T07:03:34;10.30;73.60
48551;DHT22;34397;51.176;6.738;2023-03-24T07:06:08;10.30;73.90
48551;DHT22;34397;51.176;6.738;2023-03-24T07:08:40;10.30;74.10
48551;DHT22;34397;51.176;6.738;2023-03-24T07:11:12;10.40;74.30
48551;DHT22;34397;51.176;6.738;2023-03-24T07:13:44;10.40;74.30
48551;DHT22;34397;51.176;6.738;2023-03-24T07:16:15;10.40;74.20
48551;DHT22;34397;51.176;6.738;2023-03-24T07:18:47;10.50;73.70
48551;DHT22;34397;51.176;6.738;2023-03-24T07:21:20;10.50;74.00
48551;DHT22;34397;51.176;6.738;2023-03-24T07:23:52;10.50;73.70
48551;DHT22;34397;51.176;6.738;2023-03-24T07:26:24;10.50;73.20
48551;DHT22;34397;51.176;6.738;2023-03-24T07:28:56;10.50;72.90
48551;DHT22;34397;51.176;6.738;2023-03-24T07:31:28;10.50;73.30
48551;DHT22;34397;51.176;6.738;2023-03-24T07:34:02;10.50;73.20
48551;DHT22;34397;51.176;6.738;2023-03-24T07:36:35;10.50;72.90
48551;DHT22;34397;51.176;6.738;2023-03-24T07:39:07;10.40;73.00
48551;DHT22;34397;51.176;6.738;2023-03-24T07:41:39;10.40;72.90
48551;DHT22;34397;51.176;6.738;2023-03-24T07:44:11;10.40;73.00
48551;DHT22;34397;51.176;6.738;2023-03-24T07:46:43;10.40;72.80
48551;DHT22;34397;51.176;6.738;2023-03-24T07:49:15;10.50;72.90
48551;DHT22;34397;51.176;6.738;2023-03-24T07:51:48;10.50;72.00
48551;DHT22;34397;51.176;6.738;2023-03-24T07:54:20;10.40;71.40
48551;DHT22;34397;51.176;6.738;2023-03-24T07:56:52;10.40;72.10
48551;DHT22;34397;51.176;6.738;2023-03-24T07:59:24;10.40;72.90
48551;DHT22;34397;51.176;6.738;2023-03-24T08:01:56;10.40;72.20
48551;DHT22;34397;51.176;6.738;2023-03-24T08:04:28;10.40;71.80
48551;DHT22;34397;51.176;6.738;2023-03-24T08:07:03;10.40;71.60
48551;DHT22;34397;51.176;6.738;2023-03-24T08:09:35;10.40;70.90
48551;DHT22;34397;51.176;6.738;2023-03-24T08:12:07;10.40;71.90
48551;DHT22;34397;51.176;6.738;2023-03-24T08:14:39;10.50;72.60
48551;DHT22;34397;51.176;6.738;2023-03-24T08:17:11;10.50;73.10
48551;DHT22;34397;51.176;6.738;2023-03-24T08:19:42;10.60;73.20
48551;DHT22;34397;51.176;6.738;2023-03-24T08:22:16;10.70;73.00
48551;DHT22;34397;51.176;6.738;2023-03-24T08:24:47;10.80;71.30
48551;DHT22;34397;51.176;6.738;2023-03-24T08:27:19;10.90;71.20
48551;DHT22;34397;51.176;6.738;2023-03-24T08:29:51;11.00;71.40
48551;DHT22;34397;51.176;6.738;2023-03-24T08:32:23;11.10;71.10
48551;DHT22;34397;51.176;6.738;2023-03-24T08:34:56;11.20;70.20
48551;DHT22;34397;51.176;6.738;2023-03-24T08:37:29;11.30;69.20
48551;DHT22;34397;51.176;6.738;2023-03-24T08:40:02;11.30;69.00
48551;DHT22;34397;51.176;6.738;2023-03-24T08:42:35;11.30;68.70
48551;DHT22;34397;51.176;6.738;2023-03-24T08:45:09;11.20;68.70
48551;DHT22;34397;51.176;6.738;2023-03-24T08:47:42;11.20;69.40
48551;DHT22;34397;51.176;6.738;2023-03-24T08:50:14;11.30;70.00
48551;DHT22;34397;51.176;6.738;2023-03-24T08:52:48;11.30;69.40
48551;DHT22;34397;51.176;6.738;2023-03-24T08:55:21;11.30;68.70
48551;DHT22;34397;51.176;6.738;2023-03-24T08:57:53;11.30;69.10
48551;DHT22;34397;51.176;6.738;2023-03-24T09:00:25;11.30;69.70
48551;DHT22;34397;51.176;6.738;2023-03-24T09:02:58;11.30;69.40
48551;DHT22;34397;51.176;6.738;2023-03-24T09:05:30;11.30;69.40
48551;DHT22;34397;51.176;6.738;2023-03-24T09:08:04;11.40;69.10
48551;DHT22;34397;51.176;6.738;2023-03-24T09:10:37;11.40;67.90
48551;DHT22;34397;51.176;6.738;2023-03-24T09:13:09;11.50;68.20
48551;DHT22;34397;51.176;6.738;2023-03-24T09:15:45;11.40;67.30
48551;DHT22;34397;51.176;6.738;2023-03-24T09:18:19;11.30;67.10
48551;DHT22;34397;51.176;6.738;2023-03-24T09:20:51;11.40;68.40
48551;DHT22;34397;51.176;6.738;2023-03-24T09:23:24;11.40;67.70
48551;DHT22;34397;51.176;6.738;2023-03-24T09:25:58;11.40;68.00
48551;DHT22;34397;51.176;6.738;2023-03-24T09:28:31;11.50;67.60
48551;DHT22;34397;51.176;6.738;2023-03-24T09:31:05;11.50;67.10
48551;DHT22;34397;51.176;6.738;2023-03-24T09:33:36;11.60;66.00
48551;DHT22;34397;51.176;6.738;2023-03-24T09:36:09;11.60;66.30
48551;DHT22;34397;51.176;6.738;2023-03-24T09:38:42;11.60;66.10
48551;DHT22;34397;51.176;6.738;2023-03-24T09:41:17;11.70;66.90
48551;DHT22;34397;51.176;6.738;2023-03-24T09:43:52;11.70;66.80
48551;DHT22;34397;51.176;6.738;2023-03-24T09:46:30;11.80;66.00
48551;DHT22;34397;51.176;6.738;2023-03-24T09:49:05;11.90;66.40
48551;DHT22;34397;51.176;6.738;2023-03-24T09:51:41;12.00;65.50
48551;DHT22;34397;51.176;6.738;2023-03-24T09:54:18;12.10;64.20
48551;DHT22;34397;51.176;6.738;2023-03-24T09:56:54;12.10;63.30
48551;DHT22;34397;51.176;6.738;2023-03-24T09:59:32;12.10;62.60
48551;DHT22;34397;51.176;6.738;2023-03-24T10:02:10;12.10;64.30
48551;DHT22;34397;51.176;6.738;2023-03-24T10:04:43;12.20;64.30
48551;DHT22;34397;51.176;6.738;2023-03-24T10:07:20;12.30;64.40
48551;DHT22;34397;51.176;6.738;2023-03-24T10:09:57;12.30;63.70
48551;DHT22;34397;51.176;6.738;2023-03-24T10:12:34;12.40;62.70
48551;DHT22;34397;51.176;6.738;2023-03-24T10:15:15;12.40;62.90
48551;DHT22;34397;51.176;6.738;2023-03-24T10:17:55;12.50;61.90
48551;DHT22;34397;51.176;6.738;2023-03-24T10:20:33;12.70;62.30
48551;DHT22;34397;51.176;6.738;2023-03-24T10:23:19;12.70;61.50
48551;DHT22;34397;51.176;6.738;2023-03-24T10:26:03;12.80;62.50
48551;DHT22;34397;51.176;6.738;2023-03-24T10:28:43;12.90;60.30
48551;DHT22;34397;51.176;6.738;2023-03-24T10:31:29;13.00;60.40
48551;DHT22;34397;51.176;6.738;2023-03-24T10:34:02;13.00;60.00
48551;DHT22;34397;51.176;6.738;2023-03-24T10:36:33;13.20;61.20
48551;DHT22;34397;51.176;6.738;2023-03-24T10:39:10;13.50;60.30
48551;DHT22;34397;51.176;6.738;2023-03-24T10:41:47;13.80;58.90
48551;DHT22;34397;51.176;6.738;2023-03-24T10:44:20;14.10;57.30
48551;DHT22;34397;51.176;6.738;2023-03-24T10:46:54;14.60;57.80
48551;DHT22;34397;51.176;6.738;2023-03-24T10:49:29;15.20;56.60
48551;DHT22;34397;51.176;6.738;2023-03-24T10:52:08;15.70;53.50
48551;DHT22;34397;51.176;6.738;2023-03-24T10:54:52;16.30;51.70
48551;DHT22;34397;51.176;6.738;2023-03-24T10:57:27;16.70;50.60
48551;DHT22;34397;51.176;6.738;2023-03-24T11:00:04;17.10;49.50
48551;DHT22;34397;51.176;6.738;2023-03-24T11:02:41;17.40;48.60
48551;DHT22;34397;51.176;6.738;2023-03-24T11:05:15;17.40;47.90
48551;DHT22;34397;51.176;6.738;2023-03-24T11:07:49;17.10;46.90
48551;DHT22;34397;51.176;6.738;2023-03-24T11:10:24;16.90;48.50
48551;DHT22;34397;51.176;6.738;2023-03-24T11:13:01;16.60;48.60
48551;DHT22;34397;51.176;6.738;2023-03-24T11:15:35;16.40;48.30
48551;DHT22;34397;51.176;6.738;2023-03-24T11:18:13;16.10;48.80
48551;DHT22;34397;51.176;6.738;2023-03-24T11:20:51;15.90;49.70
48551;DHT22;34397;51.176;6.738;2023-03-24T11:23:26;15.70;50.80
48551;DHT22;34397;51.176;6.738;2023-03-24T11:26:08;15.60;50.70
48551;DHT22;34397;51.176;6.738;2023-03-24T11:28:49;15.50;51.80
48551;DHT22;34397;51.176;6.738;2023-03-24T11:31:23;15.60;52.00
48551;DHT22;34397;51.176;6.738;2023-03-24T11:34:02;15.90;52.00
48551;DHT22;34397;51.176;6.738;2023-03-24T11:36:40;16.20;52.30
48551;DHT22;34397;51.176;6.738;2023-03-24T11:39:17;16.70;52.30
48551;DHT22;34397;51.176;6.738;2023-03-24T11:41:59;17.20;49.40
48551;DHT22;34397;51.176;6.738;2023-03-24T11:44:44;17.80;48.10
48551;DHT22;34397;51.176;6.738;2023-03-24T11:47:23;18.10;45.20
48551;DHT22;34397;51.176;6.738;2023-03-24T11:50:13;18.20;45.90
48551;DHT22;34397;51.176;6.738;2023-03-24T11:52:49;18.40;45.80
48551;DHT22;34397;51.176;6.738;2023-03-24T11:55:30;18.70;44.70
48551;DHT22;34397;51.176;6.738;2023-03-24T11:58:12;19.00;42.30
48551;DHT22;34397;51.176;6.738;2023-03-24T12:00:53;18.80;42.60
48551;DHT22;34397;51.176;6.738;2023-03-24T12:03:54;18.70;44.40
48551;DHT22;34397;51.176;6.738;2023-03-24T12:06:49;18.40;43.70
48551;DHT22;34397;51.176;6.738;2023-03-24T12:09:33;18.00;43.10
48551;DHT22;34397;51.176;6.738;2023-03-24T12:12:28;17.70;43.90
48551;DHT22;34397;51.176;6.738;2023-03-24T12:15:19;17.20;45.30
48551;DHT22;34397;51.176;6.738;2023-03-24T12:18:10;17.00;46.40
48551;DHT22;34397;51.176;6.738;2023-03-24T12:20:54;16.80;47.10
48551;DHT22;34397;51.176;6.738;2023-03-24T12:23:36;16.70;47.70
48551;DHT22;34397;51.176;6.738;2023-03-24T12:26:16;16.80;45.80
48551;DHT22;34397;51.176;6.738;2023-03-24T12:28:54;16.80;47.20
48551;DHT22;34397;51.176;6.738;2023-03-24T12:31:47;16.80;47.00
48551;DHT22;34397;51.176;6.738;2023-03-24T12:37:58;16.80;49.30
48551;DHT22;34397;51.176;6.738;2023-03-24T12:43:46;17.70;47.80
48551;DHT22;34397;51.176;6.738;2023-03-24T12:46:32;18.00;45.50
48551;DHT22;34397;51.176;6.738;2023-03-24T12:49:16;18.20;44.40
48551;DHT22;34397;51.176;6.738;2023-03-24T12:52:10;18.30;43.70
48551;DHT22;34397;51.176;6.738;2023-03-24T12:54:53;18.00;43.40
48551;DHT22;34397;51.176;6.738;2023-03-24T12:57:38;17.90;43.70
48551;DHT22;34397;51.176;6.738;2023-03-24T13:00:17;17.80;44.40
48551;DHT22;34397;51.176;6.738;2023-03-24T13:02:53;17.40;44.30
48551;DHT22;34397;51.176;6.738;2023-03-24T13:05:30;17.00;47.00
48551;DHT22;34397;51.176;6.738;2023-03-24T13:08:11;16.40;48.30
48551;DHT22;34397;51.176;6.738;2023-03-24T13:10:46;16.30;48.00
48551;DHT22;34397;51.176;6.738;2023-03-24T13:13:20;16.40;48.30
48551;DHT22;34397;51.176;6.738;2023-03-24T13:15:55;16.40;48.00
48551;DHT22;34397;51.176;6.738;2023-03-24T13:18:30;16.40;47.30
48551;DHT22;34397;51.176;6.738;2023-03-24T13:21:08;16.40;47.40
48551;DHT22;34397;51.176;6.738;2023-03-24T13:23:48;16.30;47.70
48551;DHT22;34397;51.176;6.738;2023-03-24T13:26:31;16.40;48.20
48551;DHT22;34397;51.176;6.738;2023-03-24T13:29:46;16.40;46.70
48551;DHT22;34397;51.176;6.738;2023-03-24T13:32:31;16.50;46.40
48551;DHT22;34397;51.176;6.738;2023-03-24T13:35:10;16.90;47.50
48551;DHT22;34397;51.176;6.738;2023-03-24T13:37:49;17.30;46.40
48551;DHT22;34397;51.176;6.738;2023-03-24T13:40:25;17.80;45.60
48551;DHT22;34397;51.176;6.738;2023-03-24T13:42:59;18.20;41.80
48551;DHT22;34397;51.176;6.738;2023-03-24T13:45:40;18.60;43.10
48551;DHT22;34397;51.176;6.738;2023-03-24T13:48:18;19.00;41.10
48551;DHT22;34397;51.176;6.738;2023-03-24T13:50:57;19.20;40.80
48551;DHT22;34397;51.176;6.738;2023-03-24T13:53:37;19.10;39.80
48551;DHT22;34397;51.176;6.738;2023-03-24T13:56:21;19.00;40.00
48551;DHT22;34397;51.176;6.738;2023-03-24T13:59:25;18.60;43.20
48551;DHT22;34397;51.176;6.738;2023-03-24T14:02:20;18.00;49.50
48551;DHT22;34397;51.176;6.738;2023-03-24T14:05:04;17.20;52.80
48551;DHT22;34397;51.176;6.738;2023-03-24T14:07:44;16.50;52.90
48551;DHT22;34397;51.176;6.738;2023-03-24T14:10:38;16.20;54.90
48551;DHT22;34397;51.176;6.738;2023-03-24T14:13:21;16.10;55.60
48551;DHT22;34397;51.176;6.738;2023-03-24T14:15:54;16.20;55.00
48551;DHT22;34397;51.176;6.738;2023-03-24T14:18:40;16.40;55.50
48551;DHT22;34397;51.176;6.738;2023-03-24T14:21:13;16.70;54.50
48551;DHT22;34397;51.176;6.738;2023-03-24T14:23:46;17.00;54.50
48551;DHT22;34397;51.176;6.738;2023-03-24T14:26:30;17.20;49.20
48551;DHT22;34397;51.176;6.738;2023-03-24T14:29:35;17.30;48.50
48551;DHT22;34397;51.176;6.738;2023-03-24T14:32:14;17.10;47.70
48551;DHT22;34397;51.176;6.738;2023-03-24T14:34:54;17.00;47.20
48551;DHT22;34397;51.176;6.738;2023-03-24T14:37:27;16.70;47.50
48551;DHT22;34397;51.176;6.738;2023-03-24T14:40:00;16.40;48.90
48551;DHT22;34397;51.176;6.738;2023-03-24T14:42:53;16.20;48.10
48551;DHT22;34397;51.176;6.738;2023-03-24T14:45:40;16.00;49.40
48551;DHT22;34397;51.176;6.738;2023-03-24T14:48:24;15.90;49.40
48551;DHT22;34397;51.176;6.738;2023-03-24T14:51:02;15.60;51.20
48551;DHT22;34397;51.176;6.738;2023-03-24T14:53:51;15.30;51.90
48551;DHT22;34397;51.176;6.738;2023-03-24T14:56:33;15.20;53.50
48551;DHT22;34397;51.176;6.738;2023-03-24T14:59:14;15.00;53.30
48551;DHT22;34397;51.176;6.738;2023-03-24T15:01:59;15.00;54.30
48551;DHT22;34397;51.176;6.738;2023-03-24T15:04:34;15.10;54.70
48551;DHT22;34397;51.176;6.738;2023-03-24T15:07:10;15.40;56.10
48551;DHT22;34397;51.176;6.738;2023-03-24T15:09:47;15.60;52.10
48551;DHT22;34397;51.176;6.738;2023-03-24T15:12:20;16.00;51.70
48551;DHT22;34397;51.176;6.738;2023-03-24T15:14:52;16.30;50.90
48551;DHT22;34397;51.176;6.738;2023-03-24T15:17:25;16.40;50.30
48551;DHT22;34397;51.176;6.738;2023-03-24T15:19:57;16.60;50.70
48551;DHT22;34397;51.176;6.738;2023-03-24T15:22:39;16.90;51.40
48551;DHT22;34397;51.176;6.738;2023-03-24T15:25:12;17.00;48.50
48551;DHT22;34397;51.176;6.738;2023-03-24T15:27:49;16.90;49.20
48551;DHT22;34397;51.176;6.738;2023-03-24T15:30:22;16.90;48.00
48551;DHT22;34397;51.176;6.738;2023-03-24T15:32:55;16.80;48.90
48551;DHT22;34397;51.176;6.738;2023-03-24T15:35:27;16.60;46.20
48551;DHT22;34397;51.176;6.738;2023-03-24T15:38:04;16.20;46.40
48551;DHT22;34397;51.176;6.738;2023-03-24T15:40:38;15.80;48.30
48551;DHT22;34397;51.176;6.738;2023-03-24T15:43:18;15.20;52.70
48551;DHT22;34397;51.176;6.738;2023-03-24T15:45:52;14.70;55.10
48551;DHT22;34397;51.176;6.738;2023-03-24T15:48:30;14.30;57.60
48551;DHT22;34397;51.176;6.738;2023-03-24T15:51:06;13.90;59.50
48551;DHT22;34397;51.176;6.738;2023-03-24T15:53:42;13.40;59.60
48551;DHT22;34397;51.176;6.738;2023-03-24T15:56:23;13.10;59.20
48551;DHT22;34397;51.176;6.738;2023-03-24T15:59:07;12.80;61.00
48551;DHT22;34397;51.176;6.738;2023-03-24T16:01:44;12.50;63.30
48551;DHT22;34397;51.176;6.738;2023-03-24T16:04:21;12.30;63.10
48551;DHT22;34397;51.176;6.738;2023-03-24T16:06:53;12.10;63.70
48551;DHT22;34397;51.176;6.738;2023-03-24T16:09:34;12.00;64.20
48551;DHT22;34397;51.176;6.738;2023-03-24T16:12:09;12.00;65.20
48551;DHT22;34397;51.176;6.738;2023-03-24T16:14:41;12.00;66.00
48551;DHT22;34397;51.176;6.738;2023-03-24T16:17:13;12.00;64.90
48551;DHT22;34397;51.176;6.738;2023-03-24T16:19:46;12.00;65.00
48551;DHT22;34397;51.176;6.738;2023-03-24T16:22:18;11.90;65.40
48551;DHT22;34397;51.176;6.738;2023-03-24T16:24:50;11.80;66.00
48551;DHT22;34397;51.176;6.738;2023-03-24T16:27:22;11.70;66.30
48551;DHT22;34397;51.176;6.738;2023-03-24T16:29:53;11.60;66.30
48551;DHT22;34397;51.176;6.738;2023-03-24T16:32:25;11.40;67.60
48551;DHT22;34397;51.176;6.738;2023-03-24T16:34:59;11.30;68.60
48551;DHT22;34397;51.176;6.738;2023-03-24T16:37:31;10.90;70.80
48551;DHT22;34397;51.176;6.738;2023-03-24T16:40:17;10.70;71.30
48551;DHT22;34397;51.176;6.738;2023-03-24T16:42:51;10.50;72.90
48551;DHT22;34397;51.176;6.738;2023-03-24T16:45:23;10.40;73.50